createdAt,value
2018-04-22T00:00:14.417Z,47.56
2018-04-22T00:02:42.598Z,47.91
2018-04-22T00:05:16.088Z,48.78
2018-04-22T00:07:44.463Z,48.79
2018-04-22T00:10:16.960Z,48.93
2018-04-22T00:12:45.359Z,48.80
2018-04-22T00:15:16.842Z,48.01
2018-04-22T00:17:45.231Z,48.58
2018-04-22T00:20:13.636Z,47.59
2018-04-22T00:22:42.038Z,47.50
2018-04-22T00:25:16.339Z,48.00
2018-04-22T00:27:44.727Z,47.90
2018-04-22T00:30:13.151Z,48.15
2018-04-22T00:32:41.528Z,48.15
2018-04-22T00:35:16.433Z,48.18
2018-04-22T00:37:44.844Z,47.74
2018-04-22T00:40:17.377Z,47.79
2018-04-22T00:42:45.781Z,48.09
2018-04-22T00:45:16.649Z,48.23
2018-04-22T00:47:45.112Z,47.94
2018-04-22T00:50:17.598Z,47.92
2018-04-22T00:52:45.990Z,48.37
2018-04-22T00:55:16.701Z,48.28
2018-04-22T00:57:45.078Z,48.28
2018-04-22T01:00:16.681Z,48.41
2018-04-22T01:02:45.081Z,48.30
2018-04-22T01:05:17.445Z,48.21
2018-04-22T01:07:45.825Z,48.28
2018-04-22T01:10:15.648Z,48.39
2018-04-22T01:12:44.017Z,49.13
2018-04-22T01:15:16.566Z,48.99
2018-04-22T01:17:44.942Z,48.88
2018-04-22T01:20:13.346Z,48.80
2018-04-22T01:22:41.743Z,48.82
2018-04-22T01:25:16.568Z,49.13
2018-04-22T01:27:44.949Z,48.93
2018-04-22T01:30:14.611Z,48.90
2018-04-22T01:32:43.013Z,48.72
2018-04-22T01:35:17.081Z,48.85
2018-04-22T01:37:45.480Z,48.78
2018-04-22T01:40:14.913Z,48.61
2018-04-22T01:42:43.272Z,48.80
2018-04-22T01:45:16.846Z,49.03
2018-04-22T01:47:44.918Z,49.33
2018-04-22T01:50:17.057Z,49.43
2018-04-22T01:52:45.441Z,49.74
2018-04-22T01:55:17.502Z,50.15
2018-04-22T01:57:46.061Z,50.46
2018-04-22T02:00:16.080Z,50.82
2018-04-22T02:02:44.448Z,51.14
2018-04-22T02:05:17.179Z,52.13
2018-04-22T02:07:45.601Z,51.85
2018-04-22T02:10:17.315Z,51.60
2018-04-22T02:12:45.931Z,51.19
2018-04-22T02:15:15.693Z,51.07
2018-04-22T02:17:44.089Z,50.93
2018-04-22T02:20:13.261Z,51.00
2018-04-22T02:22:41.662Z,51.17
2018-04-22T02:25:15.301Z,51.16
2018-04-22T02:27:43.697Z,51.32
2018-04-22T02:30:16.786Z,51.43
2018-04-22T02:32:45.193Z,51.64
2018-04-22T02:35:18.097Z,51.68
2018-04-22T02:37:46.492Z,52.13
2018-04-22T02:40:14.874Z,52.36
2018-04-22T02:42:43.244Z,52.69
2018-04-22T02:45:13.335Z,52.81
2018-04-22T02:47:41.719Z,53.22
2018-04-22T02:50:13.152Z,53.29
2018-04-22T02:52:41.537Z,53.36
2018-04-22T02:55:13.591Z,53.55
2018-04-22T02:57:41.982Z,53.65
2018-04-22T03:00:16.882Z,53.80
2018-04-22T03:02:45.322Z,53.96
2018-04-22T03:05:15.738Z,54.41
2018-04-22T03:07:44.115Z,54.60
2018-04-22T03:10:15.539Z,54.49
2018-04-22T03:12:43.955Z,54.74
2018-04-22T03:15:16.890Z,54.76
2018-04-22T03:17:45.064Z,54.88
2018-04-22T03:20:16.424Z,54.85
2018-04-22T03:22:44.825Z,54.85
2018-04-22T03:25:16.029Z,54.84
2018-04-22T03:27:44.473Z,55.12
2018-04-22T03:30:16.722Z,55.39
2018-04-22T03:32:45.147Z,55.53
2018-04-22T03:35:17.139Z,55.46
2018-04-22T03:37:45.520Z,55.62
2018-04-22T03:40:16.973Z,55.86
2018-04-22T03:42:45.370Z,55.90
2018-04-22T03:45:16.774Z,56.08
2018-04-22T03:47:45.157Z,56.25
2018-04-22T03:50:16.788Z,56.34
2018-04-22T03:52:45.170Z,56.47
2018-04-22T03:55:17.081Z,56.61
2018-04-22T03:57:45.476Z,56.64
2018-04-22T04:00:15.990Z,56.69
2018-04-22T04:02:44.379Z,56.63
2018-04-22T04:05:16.324Z,56.72
2018-04-22T04:07:44.709Z,56.86
2018-04-22T04:10:17.324Z,56.98
2018-04-22T04:12:45.713Z,57.27
2018-04-22T04:15:16.415Z,57.25
2018-04-22T04:17:44.243Z,57.37
2018-04-22T04:20:23.773Z,57.54
2018-04-22T04:22:52.160Z,57.57
2018-04-22T04:28:38.017Z,57.68
2018-04-22T04:31:06.406Z,57.64
2018-04-22T04:33:34.794Z,57.48
2018-04-22T04:36:03.205Z,57.79
2018-04-22T04:38:31.828Z,58.10
2018-04-22T04:41:00.217Z,58.02
2018-04-22T04:43:28.599Z,57.86
2018-04-22T04:45:57.173Z,58.05
2018-04-22T04:48:25.578Z,57.92
2018-04-22T04:50:53.971Z,57.88
2018-04-22T04:53:22.371Z,57.86
2018-04-22T04:55:50.779Z,57.87
2018-04-22T04:58:19.210Z,57.70
2018-04-22T05:00:47.638Z,57.67
2018-04-22T05:03:16.029Z,57.72
2018-04-22T05:05:44.440Z,57.55
2018-04-22T05:08:12.850Z,57.60
2018-04-22T05:10:41.358Z,57.58
2018-04-22T05:13:09.879Z,57.48
2018-04-22T05:15:38.305Z,57.25
2018-04-22T05:18:06.714Z,57.58
2018-04-22T05:20:37.720Z,57.67
2018-04-22T05:23:06.125Z,57.64
2018-04-22T05:25:34.508Z,57.45
2018-04-22T05:28:12.615Z,57.71
2018-04-22T05:30:40.995Z,57.53
2018-04-22T05:33:09.413Z,57.56
2018-04-22T05:35:37.818Z,57.39
2018-04-22T05:38:06.249Z,57.13
2018-04-22T05:40:34.663Z,57.04
2018-04-22T05:43:03.048Z,56.85
2018-04-22T05:45:31.440Z,56.62
2018-04-22T05:47:59.859Z,56.97
2018-04-22T05:50:28.326Z,56.72
2018-04-22T05:52:56.794Z,56.12
2018-04-22T05:55:25.181Z,55.25
2018-04-22T05:57:53.575Z,55.17
2018-04-22T06:00:21.976Z,54.79
2018-04-22T06:02:50.373Z,54.08
2018-04-22T06:05:19.958Z,54.28
2018-04-22T06:07:48.358Z,53.77
2018-04-22T06:10:16.759Z,53.84
2018-04-22T06:12:45.153Z,54.37
2018-04-22T06:15:17.470Z,54.40
2018-04-22T06:17:45.858Z,53.89
2018-04-22T06:20:14.231Z,54.00
2018-04-22T06:22:42.804Z,54.02
2018-04-22T06:25:16.471Z,53.35
2018-04-22T06:27:44.887Z,53.27
2018-04-22T06:30:16.155Z,53.76
2018-04-22T06:32:44.526Z,53.12
2018-04-22T06:35:16.684Z,53.31
2018-04-22T06:37:45.520Z,52.95
2018-04-22T06:40:15.027Z,52.60
2018-04-22T06:42:43.567Z,52.45
2018-04-22T06:45:17.024Z,52.36
2018-04-22T06:47:45.423Z,52.67
2018-04-22T06:50:13.843Z,52.41
2018-04-22T06:52:42.227Z,51.82
2018-04-22T06:55:16.173Z,51.10
2018-04-22T06:57:44.577Z,50.85
2018-04-22T07:00:17.070Z,50.57
2018-04-22T07:02:45.473Z,50.83
2018-04-22T07:05:14.825Z,51.02
2018-04-22T07:07:43.293Z,50.66
2018-04-22T07:10:15.454Z,50.23
2018-04-22T07:12:43.836Z,50.37
2018-04-22T07:15:16.222Z,50.30
2018-04-22T07:17:44.645Z,49.78
2018-04-22T07:20:16.641Z,49.66
2018-04-22T07:22:46.310Z,49.57
2018-04-22T07:25:15.580Z,49.93
2018-04-22T07:27:43.997Z,50.05
2018-04-22T07:30:16.278Z,49.39
2018-04-22T07:32:44.673Z,50.08
2018-04-22T07:35:16.703Z,49.59
2018-04-22T07:37:45.136Z,49.30
2018-04-22T07:40:16.038Z,49.09
2018-04-22T07:42:44.456Z,49.21
2018-04-22T07:45:17.388Z,48.69
2018-04-22T07:47:45.797Z,48.29
2018-04-22T07:50:16.509Z,48.84
2018-04-22T07:52:44.995Z,48.72
2018-04-22T07:55:17.970Z,48.37
2018-04-22T07:57:46.388Z,48.41
2018-04-22T08:00:15.637Z,48.08
2018-04-22T08:02:44.164Z,48.09
2018-04-22T08:05:15.081Z,48.26
2018-04-22T08:07:43.511Z,48.17
2018-04-22T08:10:12.559Z,47.77
2018-04-22T08:12:41.579Z,47.79
2018-04-22T08:15:12.791Z,47.75
2018-04-22T08:17:41.226Z,47.57
2018-04-22T08:20:17.539Z,47.63
2018-04-22T08:22:45.917Z,47.20
2018-04-22T08:25:16.320Z,47.26
2018-04-22T08:27:44.868Z,47.14
2018-04-22T08:30:16.984Z,47.56
2018-04-22T08:32:45.543Z,47.97
2018-04-22T08:35:17.059Z,46.94
2018-04-22T08:37:45.510Z,45.94
2018-04-22T08:40:15.449Z,45.94
2018-04-22T08:42:43.868Z,45.80
2018-04-22T08:45:16.565Z,45.47
2018-04-22T08:47:45.004Z,45.57
2018-04-22T08:50:13.389Z,45.76
2018-04-22T08:52:41.787Z,44.97
2018-04-22T08:55:15.878Z,44.70
2018-04-22T08:57:44.270Z,44.95
2018-04-22T09:00:16.843Z,44.17
2018-04-22T09:02:45.275Z,43.54
2018-04-22T09:05:15.680Z,44.08
2018-04-22T09:07:44.092Z,43.34
2018-04-22T09:10:13.016Z,43.44
2018-04-22T09:12:41.431Z,43.40
2018-04-22T09:15:13.385Z,43.50
2018-04-22T09:17:41.759Z,43.53
2018-04-22T09:20:17.885Z,43.10
2018-04-22T09:22:46.341Z,41.88
2018-04-22T09:25:15.696Z,42.79
2018-04-22T09:27:44.084Z,41.92
2018-04-22T09:30:13.443Z,41.77
2018-04-22T09:32:41.846Z,42.32
2018-04-22T09:35:12.758Z,42.07
2018-04-22T09:37:41.176Z,42.11
2018-04-22T09:40:15.797Z,41.08
2018-04-22T09:42:44.201Z,40.70
2018-04-22T09:45:13.301Z,40.69
2018-04-22T09:47:41.734Z,40.89
2018-04-22T09:50:16.990Z,40.46
2018-04-22T09:52:45.393Z,40.00
2018-04-22T09:55:16.291Z,39.07
2018-04-22T09:57:44.666Z,38.72
2018-04-22T10:00:18.496Z,38.29
2018-04-22T10:02:48.442Z,37.77
2018-04-22T10:05:22.852Z,38.25
2018-04-22T10:07:51.315Z,37.84
2018-04-22T10:10:19.794Z,36.92
2018-04-22T10:12:48.364Z,35.27
2018-04-22T10:15:16.753Z,35.28
2018-04-22T10:17:45.160Z,35.12
2018-04-22T10:20:15.446Z,35.22
2018-04-22T10:22:43.875Z,35.07
2018-04-22T10:25:12.821Z,34.74
2018-04-22T10:27:41.279Z,33.49
2018-04-22T10:30:14.486Z,33.24
2018-04-22T10:32:42.880Z,33.35
2018-04-22T10:35:11.279Z,31.44
2018-04-22T10:37:39.669Z,31.07
2018-04-22T10:40:09.345Z,31.73
2018-04-22T10:42:38.011Z,31.26
2018-04-22T10:45:08.146Z,30.80
2018-04-22T10:47:36.525Z,30.94
2018-04-22T10:50:11.469Z,30.93
2018-04-22T10:52:39.904Z,30.56
2018-04-22T10:55:10.939Z,29.71
2018-04-22T10:57:39.471Z,28.70
2018-04-22T11:00:15.565Z,27.90
2018-04-22T11:02:43.948Z,27.08
2018-04-22T11:05:16.530Z,26.68
2018-04-22T11:07:46.001Z,26.51
2018-04-22T11:10:14.436Z,28.04
2018-04-22T11:12:42.829Z,28.14
2018-04-22T11:15:15.736Z,27.80
2018-04-22T11:17:44.136Z,27.55
2018-04-22T11:20:15.639Z,27.58
2018-04-22T11:22:44.090Z,27.75
2018-04-22T11:25:16.463Z,26.91
2018-04-22T11:27:44.871Z,27.08
2018-04-22T11:30:13.969Z,27.20
2018-04-22T11:32:42.407Z,27.03
2018-04-22T11:35:17.784Z,27.25
2018-04-22T11:37:47.203Z,27.36
2018-04-22T11:40:15.804Z,27.02
2018-04-22T11:42:44.234Z,26.81
2018-04-22T11:45:16.400Z,26.73
2018-04-22T11:47:44.823Z,27.68
2018-04-22T11:50:13.801Z,29.14
2018-04-22T11:52:42.203Z,30.04
2018-04-22T11:55:13.405Z,30.49
2018-04-22T11:57:41.796Z,29.99
2018-04-22T12:00:15.664Z,29.40
2018-04-22T12:02:44.083Z,29.39
2018-04-22T12:05:16.633Z,29.90
2018-04-22T12:07:45.009Z,30.42
2018-04-22T12:10:16.465Z,30.27
2018-04-22T12:12:44.841Z,29.06
2018-04-22T12:15:16.725Z,28.97
2018-04-22T12:17:45.195Z,28.51
2018-04-22T12:20:16.061Z,29.06
2018-04-22T12:22:44.469Z,29.54
2018-04-22T12:25:17.063Z,29.55
2018-04-22T12:27:45.446Z,28.82
2018-04-22T12:30:13.872Z,29.48
2018-04-22T12:32:42.067Z,30.12
2018-04-22T12:35:16.264Z,29.88
2018-04-22T12:37:44.783Z,30.14
2018-04-22T12:40:17.067Z,30.49
2018-04-22T12:42:45.442Z,31.05
2018-04-22T12:45:13.870Z,31.07
2018-04-22T12:47:42.285Z,31.55
2018-04-22T12:50:16.521Z,31.36
2018-04-22T12:52:44.911Z,31.30
2018-04-22T12:55:17.244Z,31.02
2018-04-22T12:57:45.695Z,31.38
2018-04-22T13:00:16.503Z,31.25
2018-04-22T13:02:44.918Z,31.26
2018-04-22T13:05:16.805Z,31.03
2018-04-22T13:07:45.221Z,31.04
2018-04-22T13:10:14.698Z,31.46
2018-04-22T13:12:43.083Z,31.53
2018-04-22T13:15:15.990Z,31.95
2018-04-22T13:17:44.425Z,32.19
2018-04-22T13:20:16.408Z,32.03
2018-04-22T13:22:44.806Z,32.13
2018-04-22T13:25:17.299Z,32.19
2018-04-22T13:27:45.694Z,32.12
2018-04-22T13:30:17.690Z,31.84
2018-04-22T13:32:46.069Z,32.02
2018-04-22T13:35:17.490Z,31.65
2018-04-22T13:37:45.865Z,31.83
2018-04-22T13:40:14.320Z,31.75
2018-04-22T13:42:42.701Z,32.24
2018-04-22T13:45:14.821Z,32.51
2018-04-22T13:47:43.220Z,32.38
2018-04-22T13:50:17.251Z,32.05
2018-04-22T13:52:45.643Z,31.38
2018-04-22T13:55:17.200Z,31.57
2018-04-22T13:57:45.614Z,31.52
2018-04-22T14:00:14.036Z,31.57
2018-04-22T14:02:42.413Z,29.97
2018-04-22T14:05:17.712Z,28.30
2018-04-22T14:07:46.133Z,29.97
2018-04-22T14:10:14.519Z,31.36
2018-04-22T14:12:43.018Z,31.52
2018-04-22T14:15:13.030Z,31.65
2018-04-22T14:17:41.406Z,30.95
2018-04-22T14:20:16.230Z,29.55
2018-04-22T14:22:44.639Z,29.01
2018-04-22T14:25:17.392Z,29.25
2018-04-22T14:27:45.905Z,30.56
2018-04-22T14:30:16.097Z,30.83
2018-04-22T14:32:44.500Z,29.02
2018-04-22T14:35:14.213Z,28.88
2018-04-22T14:37:42.632Z,28.71
2018-04-22T14:40:16.624Z,28.76
2018-04-22T14:42:45.028Z,28.89
2018-04-22T14:45:24.774Z,29.86
2018-04-22T14:47:53.256Z,30.29
2018-04-22T14:50:21.634Z,30.15
2018-04-22T14:52:50.027Z,30.65
2018-04-22T14:55:18.406Z,30.88
2018-04-22T14:57:46.885Z,31.04
2018-04-22T15:00:18.706Z,30.61
2018-04-22T15:02:47.090Z,30.83
2018-04-22T15:05:15.527Z,30.69
2018-04-22T15:07:44.118Z,30.37
2018-04-22T15:10:15.151Z,30.68
2018-04-22T15:12:43.557Z,30.92
2018-04-22T15:15:16.227Z,30.64
2018-04-22T15:17:44.692Z,30.71
2018-04-22T15:20:13.075Z,31.03
2018-04-22T15:22:41.477Z,30.96
2018-04-22T15:25:16.477Z,30.65
2018-04-22T15:27:44.863Z,31.00
2018-04-22T15:30:15.461Z,30.67
2018-04-22T15:32:43.906Z,30.67
2018-04-22T15:35:16.864Z,30.85
2018-04-22T15:37:45.248Z,30.93
2018-04-22T15:40:13.657Z,30.39
2018-04-22T15:42:42.103Z,30.61
2018-04-22T15:45:15.273Z,30.75
2018-04-22T15:47:43.662Z,30.67
2018-04-22T15:50:17.917Z,30.84
2018-04-22T15:52:46.330Z,30.37
2018-04-22T15:55:17.783Z,30.42
2018-04-22T15:57:46.222Z,30.50
2018-04-22T16:00:14.683Z,30.77
2018-04-22T16:02:43.078Z,30.41
2018-04-22T16:05:17.675Z,30.93
2018-04-22T16:07:46.110Z,31.17
2018-04-22T16:10:17.651Z,31.21
2018-04-22T16:12:46.050Z,31.32
2018-04-22T16:15:14.499Z,31.30
2018-04-22T16:17:42.925Z,31.39
2018-04-22T16:20:17.302Z,31.30
2018-04-22T16:22:45.761Z,31.07
2018-04-22T16:25:14.183Z,31.04
2018-04-22T16:27:42.570Z,30.90
2018-04-22T16:30:16.676Z,32.23
2018-04-22T16:32:45.573Z,32.63
2018-04-22T16:35:16.404Z,33.38
2018-04-22T16:37:44.989Z,34.00
2018-04-22T16:40:16.314Z,34.52
2018-04-22T16:42:44.695Z,34.71
2018-04-22T16:45:16.851Z,34.38
2018-04-22T16:47:45.299Z,33.91
2018-04-22T16:50:16.896Z,34.56
2018-04-22T16:52:45.304Z,34.60
2018-04-22T16:55:16.757Z,34.67
2018-04-22T16:57:45.182Z,34.73
2018-04-22T17:00:14.849Z,34.91
2018-04-22T17:02:43.223Z,35.00
2018-04-22T17:05:17.881Z,35.06
2018-04-22T17:07:46.339Z,35.20
2018-04-22T17:10:16.725Z,34.96
2018-04-22T17:12:45.190Z,35.30
2018-04-22T17:15:17.446Z,35.22
2018-04-22T17:17:45.867Z,35.27
2018-04-22T17:20:16.012Z,35.20
2018-04-22T17:22:44.382Z,35.20
2018-04-22T17:25:16.958Z,35.31
2018-04-22T17:27:45.386Z,35.77
2018-04-22T17:30:16.715Z,35.90
2018-04-22T17:32:45.110Z,36.24
2018-04-22T17:35:16.520Z,36.30
2018-04-22T17:37:44.922Z,36.70
2018-04-22T17:40:16.867Z,36.79
2018-04-22T17:42:45.282Z,36.96
2018-04-22T17:45:17.818Z,37.25
2018-04-22T17:47:46.209Z,38.39
2018-04-22T17:50:14.587Z,37.71
2018-04-22T17:52:43.043Z,38.09
2018-04-22T17:55:17.386Z,38.40
2018-04-22T17:57:45.769Z,38.46
2018-04-22T18:00:16.804Z,38.43
2018-04-22T18:02:45.218Z,38.90
2018-04-22T18:05:16.945Z,38.93
2018-04-22T18:07:45.381Z,39.08
2018-04-22T18:10:16.113Z,39.15
2018-04-22T18:12:44.489Z,39.44
2018-04-22T18:15:15.803Z,39.25
2018-04-22T18:17:44.185Z,39.68
2018-04-22T18:20:25.165Z,39.99
2018-04-22T18:22:53.708Z,40.05
2018-04-22T18:25:22.089Z,39.92
2018-04-22T18:27:50.505Z,39.96
2018-04-22T18:30:19.815Z,40.10
2018-04-22T18:32:48.357Z,40.21
2018-04-22T18:35:16.742Z,40.32
2018-04-22T18:37:45.136Z,40.30
2018-04-22T18:40:16.481Z,40.23
2018-04-22T18:42:44.656Z,40.09
2018-04-22T18:45:15.905Z,40.33
2018-04-22T18:47:44.114Z,40.13
2018-04-22T18:50:17.326Z,40.09
2018-04-22T18:52:45.765Z,40.20
2018-04-22T18:55:16.236Z,40.33
2018-04-22T18:57:44.623Z,40.70
2018-04-22T19:00:16.379Z,40.83
2018-04-22T19:02:44.810Z,41.24
2018-04-22T19:05:17.447Z,42.05
2018-04-22T19:07:46.004Z,42.73
2018-04-22T19:10:16.553Z,42.93
2018-04-22T19:12:47.128Z,43.19
2018-04-22T19:15:16.908Z,43.79
2018-04-22T19:17:45.309Z,43.90
2018-04-22T19:20:16.713Z,43.92
2018-04-22T19:22:45.109Z,44.45
2018-04-22T19:25:17.459Z,44.55
2018-04-22T19:27:45.876Z,44.70
2018-04-22T19:30:14.273Z,45.29
2018-04-22T19:32:42.668Z,45.83
2018-04-22T19:35:12.957Z,45.96
2018-04-22T19:37:41.360Z,46.21
2018-04-22T19:40:16.752Z,46.37
2018-04-22T19:42:45.357Z,47.11
2018-04-22T19:45:19.697Z,47.50
2018-04-22T19:47:48.093Z,47.67
2018-04-22T19:50:17.375Z,47.98
2018-04-22T19:52:45.887Z,48.23
2018-04-22T19:55:17.184Z,48.41
2018-04-22T19:57:45.563Z,48.43
2018-04-22T20:00:16.065Z,48.35
2018-04-22T20:02:44.580Z,48.29
2018-04-22T20:05:15.940Z,48.79
2018-04-22T20:07:44.349Z,48.75
2018-04-22T20:10:15.827Z,48.98
2018-04-22T20:12:44.411Z,49.41
2018-04-22T20:15:16.289Z,49.88
2018-04-22T20:17:44.691Z,49.91
2018-04-22T20:20:33.323Z,49.98
2018-04-22T20:23:01.739Z,50.34
2018-04-22T20:25:30.138Z,50.07
2018-04-22T20:27:58.559Z,49.90
2018-04-22T20:30:26.941Z,49.99
2018-04-22T20:32:55.316Z,50.25
2018-04-22T20:35:23.737Z,51.07
2018-04-22T20:37:52.133Z,51.07
2018-04-22T20:40:20.591Z,50.99
2018-04-22T20:42:49.184Z,51.58
2018-04-22T20:45:17.594Z,51.95
2018-04-22T20:47:46.036Z,52.28
2018-04-22T20:50:16.400Z,52.56
2018-04-22T20:52:44.815Z,52.87
2018-04-22T20:55:16.415Z,53.28
2018-04-22T20:57:44.817Z,53.73
2018-04-22T21:00:16.220Z,53.80
2018-04-22T21:02:44.645Z,54.02
2018-04-22T21:05:16.837Z,54.21
2018-04-22T21:07:45.221Z,54.48
2018-04-22T21:10:13.392Z,54.56
2018-04-22T21:12:41.806Z,54.63
2018-04-22T21:15:16.488Z,54.84
2018-04-22T21:17:44.926Z,55.00
2018-04-22T21:20:17.105Z,55.14
2018-04-22T21:22:45.504Z,55.07
2018-04-22T21:25:15.679Z,54.64
2018-04-22T21:27:43.885Z,54.50
2018-04-22T21:30:16.940Z,54.08
2018-04-22T21:32:45.338Z,54.21
2018-04-22T21:35:15.969Z,54.12
2018-04-22T21:37:44.349Z,54.19
2018-04-22T21:40:12.800Z,54.30
2018-04-22T21:42:41.300Z,54.77
2018-04-22T21:45:15.978Z,54.77
2018-04-22T21:47:45.286Z,54.63
2018-04-22T21:50:18.474Z,54.63
2018-04-22T21:52:46.893Z,54.95
2018-04-22T21:55:15.754Z,54.84
2018-04-22T21:57:44.164Z,55.21
2018-04-22T22:00:14.090Z,55.31
2018-04-22T22:02:42.490Z,55.70
2018-04-22T22:05:13.440Z,55.71
2018-04-22T22:07:42.082Z,55.79
2018-04-22T22:10:16.542Z,55.64
2018-04-22T22:12:44.932Z,55.40
2018-04-22T22:15:13.876Z,55.58
2018-04-22T22:17:42.294Z,55.78
2018-04-22T22:20:10.698Z,55.65
2018-04-22T22:22:39.101Z,55.72
2018-04-22T22:25:11.958Z,55.72
2018-04-22T22:27:40.383Z,55.63
2018-04-22T22:30:15.969Z,55.37
2018-04-22T22:32:44.370Z,55.64
2018-04-22T22:35:14.732Z,55.86
2018-04-22T22:37:43.131Z,55.90
2018-04-22T22:40:15.283Z,56.07
2018-04-22T22:42:43.701Z,55.89
2018-04-22T22:45:14.854Z,56.02
2018-04-22T22:47:43.263Z,56.48
2018-04-22T22:50:13.166Z,56.71
2018-04-22T22:52:41.557Z,56.54
2018-04-22T22:55:16.325Z,56.86
2018-04-22T22:57:44.953Z,57.28
2018-04-22T23:00:15.979Z,57.36
2018-04-22T23:02:44.447Z,57.36
2018-04-22T23:05:13.076Z,57.40
2018-04-22T23:07:41.467Z,57.34
2018-04-22T23:10:16.479Z,57.38
2018-04-22T23:12:45.116Z,58.16
2018-04-22T23:15:16.098Z,58.40
2018-04-22T23:17:44.486Z,58.67
2018-04-22T23:20:13.663Z,58.93
2018-04-22T23:22:42.062Z,59.27
2018-04-22T23:25:10.456Z,59.51
2018-04-22T23:27:38.830Z,59.54
2018-04-22T23:30:15.443Z,59.58
2018-04-22T23:32:43.844Z,59.51
2018-04-22T23:35:12.475Z,59.78
2018-04-22T23:37:41.059Z,60.22
2018-04-22T23:40:14.717Z,60.21
2018-04-22T23:42:43.138Z,60.29
2018-04-22T23:45:11.550Z,60.31
2018-04-22T23:47:39.963Z,60.50
2018-04-22T23:50:11.760Z,60.65
2018-04-22T23:52:40.236Z,60.74
2018-04-22T23:55:13.554Z,60.67
2018-04-22T23:57:41.944Z,60.57
